Time;durP1;ratioP1;P1;durP2;ratioP2;P2;SDS_P1;SDS_P2;PMS_P1;PMS_P2;Temp;Humidity;BMP_temperature;BMP_pressure;BME280_temperature;BME280_humidity;BME280_pressure;Samples;Min_cycle;Max_cycle;Signal;HPM_P1;HPM_P2
2022/01/11 00:00:59;;;;;;;48.13;17.90;;;;;;;3.86;72.61;103064.66;4959438;28;20049;-59
2022/01/11 00:03:24;;;;;;;50.10;18.23;;;;;;;3.87;72.65;103069.03;4952344;28;20149;-60
2022/01/11 00:08:17;;;;;;;49.35;18.27;;;;;;;3.79;73.22;103054.66;4949724;28;20491;-60
2022/01/11 00:10:54;;;;;;;50.50;19.42;;;;;;;3.79;73.50;103064.97;4958502;28;20041;-59
2022/01/11 00:13:21;;;;;;;48.60;18.20;;;;;;;3.81;73.21;103068.59;4956056;28;20039;-60
2022/01/11 00:15:47;;;;;;;48.47;17.95;;;;;;;3.82;73.85;103083.28;4956046;28;20126;-59
2022/01/11 00:18:16;;;;;;;47.20;17.42;;;;;;;3.89;72.46;103087.22;4958847;28;20149;-60
2022/01/11 00:20:41;;;;;;;45.97;17.63;;;;;;;3.79;72.58;103095.03;4945956;28;20038;-59
2022/01/11 00:25:36;;;;;;;50.67;18.08;;;;;;;3.79;72.96;103089.88;4949999;28;20034;-59
2022/01/11 00:28:02;;;;;;;50.05;18.23;;;;;;;3.84;72.12;103093.72;4955871;28;20046;-59
2022/01/11 00:30:32;;;;;;;50.97;17.75;;;;;;;3.79;72.83;103095.94;4958925;28;20101;-59
2022/01/11 00:33:00;;;;;;;48.83;17.08;;;;;;;3.80;72.96;103102.00;4958866;28;20339;-59
2022/01/11 00:35:29;;;;;;;52.20;18.92;;;;;;;3.84;73.01;103102.34;4948723;28;20039;-59
2022/01/11 00:37:55;;;;;;;50.33;18.38;;;;;;;3.86;73.07;103105.94;4963234;28;20127;-59
2022/01/11 00:40:21;;;;;;;52.08;17.83;;;;;;;3.89;72.36;103102.72;4959544;28;20081;-58
2022/01/11 00:42:46;;;;;;;54.63;18.63;;;;;;;3.92;72.65;103101.25;4953908;28;20113;-59
2022/01/11 00:45:12;;;;;;;45.67;17.30;;;;;;;3.96;72.93;103094.66;4955132;28;20133;-58
2022/01/11 00:47:38;;;;;;;49.13;18.08;;;;;;;3.95;72.44;103088.59;4952175;28;20315;-59
2022/01/11 00:50:05;;;;;;;46.28;17.88;;;;;;;4.00;72.63;103091.50;4961323;28;20038;-59
2022/01/11 00:52:30;;;;;;;48.95;17.70;;;;;;;3.94;71.73;103106.53;4962121;28;20049;-60
2022/01/11 00:54:56;;;;;;;47.28;17.83;;;;;;;3.99;72.38;103106.09;4958060;28;20039;-60
2022/01/11 00:57:22;;;;;;;54.58;19.50;;;;;;;3.94;71.81;103107.44;4952156;28;20038;-59
2022/01/11 00:59:48;;;;;;;55.78;19.42;;;;;;;3.96;72.33;103107.56;4951771;28;20336;-60
2022/01/11 01:02:13;;;;;;;55.38;20.40;;;;;;;3.93;71.70;103107.31;4918555;28;20721;-60
2022/01/11 01:04:39;;;;;;;58.10;20.63;;;;;;;3.90;72.04;103100.25;4954205;28;20050;-59
2022/01/11 01:07:05;;;;;;;58.30;20.50;;;;;;;3.92;71.92;103103.81;4952481;28;20042;-60
2022/01/11 01:09:39;;;;;;;59.13;20.35;;;;;;;3.95;72.08;103103.19;4950822;28;20354;-59
2022/01/11 01:12:05;;;;;;;61.40;20.25;;;;;;;3.85;72.92;103100.66;4960998;28;20097;-59
2022/01/11 01:14:30;;;;;;;61.13;21.95;;;;;;;3.96;72.31;103100.72;4957789;28;20058;-60
2022/01/11 01:16:55;;;;;;;59.10;22.05;;;;;;;4.00;72.48;103107.00;4958042;28;20239;-59
2022/01/11 01:19:21;;;;;;;63.25;21.27;;;;;;;3.97;72.22;103106.75;4958962;28;20549;-61
2022/01/11 01:21:49;;;;;;;59.72;21.48;;;;;;;4.01;72.05;103104.53;4952681;28;20049;-60
2022/01/11 01:24:14;;;;;;;60.45;22.10;;;;;;;3.98;72.29;103106.88;4957952;28;20169;-60
2022/01/11 01:26:40;;;;;;;62.08;22.27;;;;;;;3.96;72.35;103100.72;4951453;28;20038;-61
2022/01/11 01:29:06;;;;;;;67.47;23.98;;;;;;;4.07;71.91;103101.53;4955960;28;20034;-60
2022/01/11 01:31:32;;;;;;;60.38;21.63;;;;;;;4.04;72.06;103103.84;4948814;28;20153;-60
2022/01/11 01:33:57;;;;;;;65.00;23.92;;;;;;;4.06;72.58;103110.94;4956841;28;20105;-60
2022/01/11 01:36:23;;;;;;;65.07;22.48;;;;;;;4.09;72.18;103111.16;4957814;28;20782;-59
2022/01/11 01:38:48;;;;;;;65.65;22.90;;;;;;;4.09;71.75;103110.25;4955630;28;20446;-59
2022/01/11 01:41:20;;;;;;;77.03;25.15;;;;;;;4.08;71.28;103104.22;4956530;28;20498;-62
2022/01/11 01:43:48;;;;;;;83.22;26.88;;;;;;;4.06;71.66;103108.34;4944088;28;20094;-59
2022/01/11 01:46:14;;;;;;;79.50;27.15;;;;;;;4.05;71.96;103103.06;4954171;28;20062;-59
2022/01/11 01:48:42;;;;;;;83.63;27.60;;;;;;;4.08;71.65;103111.06;4959209;28;20042;-60
2022/01/11 01:51:08;;;;;;;85.47;27.50;;;;;;;4.05;71.66;103113.41;4957273;28;20057;-59
2022/01/11 01:53:35;;;;;;;78.65;26.00;;;;;;;4.01;72.33;103111.38;4954680;28;20560;-59
2022/01/11 01:56:01;;;;;;;74.40;25.10;;;;;;;4.00;72.36;103119.91;4955768;28;20421;-59
2022/01/11 01:58:29;;;;;;;72.35;24.50;;;;;;;4.10;72.42;103112.06;4952998;28;20046;-59
2022/01/11 02:01:01;;;;;;;71.43;24.45;;;;;;;4.09;72.36;103115.41;4955925;28;20046;-59
2022/01/11 02:03:29;;;;;;;72.93;24.45;;;;;;;4.07;72.08;103117.91;4952004;28;20390;-60
2022/01/11 02:05:55;;;;;;;66.47;23.30;;;;;;;4.03;72.74;103113.28;4961680;28;20125;-60
2022/01/11 02:08:20;;;;;;;73.93;24.52;;;;;;;4.03;72.47;103113.28;4954012;28;20050;-60
2022/01/11 02:10:46;;;;;;;68.18;23.67;;;;;;;4.12;72.53;103112.19;4960300;28;20497;-59
2022/01/11 02:13:11;;;;;;;68.85;23.67;;;;;;;4.00;72.71;103107.00;4954290;28;20058;-61
2022/01/11 02:15:38;;;;;;;69.35;22.83;;;;;;;4.10;71.83;103119.78;4944021;28;20710;-60
2022/01/11 02:18:07;;;;;;;73.93;23.00;;;;;;;4.01;71.64;103124.28;4953045;28;20050;-59
2022/01/11 02:20:33;;;;;;;68.07;23.80;;;;;;;4.01;71.79;103138.09;4955804;28;20054;-59
2022/01/11 02:22:58;;;;;;;71.63;23.58;;;;;;;4.05;72.70;103141.78;4958666;28;20693;-59
2022/01/11 02:25:28;;;;;;;74.10;23.58;;;;;;;4.07;72.16;103138.56;4950815;28;20481;-59
2022/01/11 02:27:54;;;;;;;73.18;23.48;;;;;;;4.14;71.99;103146.75;4953910;28;20050;-60
2022/01/11 02:30:19;;;;;;;71.82;24.00;;;;;;;4.10;72.40;103143.03;4953706;28;21084;-59
2022/01/11 02:32:51;;;;;;;71.25;24.38;;;;;;;4.13;72.46;103132.94;4957896;28;20050;-60
2022/01/11 02:35:18;;;;;;;71.85;24.17;;;;;;;4.15;72.44;103133.06;4952845;28;20042;-59
2022/01/11 02:37:44;;;;;;;73.72;24.05;;;;;;;4.17;71.87;103132.38;4953797;28;21850;-59
2022/01/11 02:40:13;;;;;;;69.03;24.30;;;;;;;4.18;71.78;103133.28;4949463;28;20121;-59
2022/01/11 02:42:39;;;;;;;66.18;23.30;;;;;;;4.09;72.58;103131.81;4957112;28;20042;-59
2022/01/11 02:45:14;;;;;;;76.32;24.08;;;;;;;4.17;72.12;103132.38;4957400;28;20076;-59
2022/01/11 02:47:40;;;;;;;69.95;24.05;;;;;;;4.22;72.51;103131.03;4951282;28;20038;-59
2022/01/11 02:50:06;;;;;;;68.20;23.15;;;;;;;4.23;71.70;103132.84;4952961;28;20516;-58
2022/01/11 02:52:31;;;;;;;77.88;24.48;;;;;;;4.23;72.05;103130.25;4947796;28;20069;-59
2022/01/11 02:54:56;;;;;;;74.82;24.42;;;;;;;4.19;72.73;103125.66;4956585;28;20138;-60
2022/01/11 02:57:22;;;;;;;78.63;25.30;;;;;;;4.17;72.53;103128.91;4944476;28;20572;-59
2022/01/11 02:59:47;;;;;;;74.63;24.38;;;;;;;4.21;72.16;103136.97;4946765;28;20042;-59
2022/01/11 03:02:12;;;;;;;72.30;24.80;;;;;;;4.26;71.82;103139.94;4977334;28;20520;-59
2022/01/11 03:04:38;;;;;;;74.05;24.38;;;;;;;4.28;71.83;103143.50;4952955;28;20042;-59
2022/01/11 03:07:04;;;;;;;75.78;23.73;;;;;;;4.32;71.90;103150.72;4950251;28;20035;-59
2022/01/11 03:09:36;;;;;;;70.20;24.52;;;;;;;4.29;72.14;103159.13;4947203;28;20173;-59
2022/01/11 03:12:02;;;;;;;67.97;23.60;;;;;;;4.29;72.33;103153.97;4955857;28;20050;-60
2022/01/11 03:14:27;;;;;;;66.03;23.08;;;;;;;4.24;71.92;103154.41;4958761;28;20555;-60
2022/01/11 03:16:53;;;;;;;69.93;22.67;;;;;;;4.31;71.69;103160.16;4955951;28;20057;-60
2022/01/11 03:19:19;;;;;;;74.43;24.05;;;;;;;4.33;72.39;103162.84;4954948;28;20108;-59
2022/01/11 03:21:44;;;;;;;73.15;22.60;;;;;;;4.36;72.25;103156.22;4950835;28;20085;-59
2022/01/11 03:24:11;;;;;;;70.03;23.48;;;;;;;4.35;72.52;103156.09;4953860;28;20300;-58
2022/01/11 03:26:37;;;;;;;69.28;22.98;;;;;;;4.29;72.37;103148.78;4953899;28;20581;-59
2022/01/11 03:29:02;;;;;;;67.47;23.63;;;;;;;4.29;72.09;103147.91;4960515;28;20049;-59
2022/01/11 03:31:27;;;;;;;68.55;23.08;;;;;;;4.27;72.33;103144.31;4952294;28;20061;-59
2022/01/11 03:33:53;;;;;;;67.25;23.77;;;;;;;4.29;72.18;103153.06;4952130;28;20501;-60
2022/01/11 03:36:18;;;;;;;71.85;23.88;;;;;;;4.23;72.17;103144.84;4958513;28;20045;-60
2022/01/11 03:38:43;;;;;;;75.15;24.08;;;;;;;4.22;72.07;103146.53;4955387;28;20062;-59
2022/01/11 03:41:09;;;;;;;74.72;24.40;;;;;;;4.20;72.13;103154.97;4961300;28;20044;-60
2022/01/11 03:43:34;;;;;;;67.30;23.90;;;;;;;4.29;72.45;103150.47;4955470;28;20109;-59
2022/01/11 03:46:00;;;;;;;74.38;24.17;;;;;;;4.26;72.01;103148.59;4954433;28;20039;-60
2022/01/11 03:48:25;;;;;;;74.38;25.55;;;;;;;4.25;71.72;103141.63;4965025;28;20050;-59
2022/01/11 03:50:55;;;;;;;78.78;25.35;;;;;;;4.13;72.52;103139.78;4959793;28;20493;-59
2022/01/11 03:53:25;;;;;;;75.25;23.95;;;;;;;4.00;73.15;103132.81;4955841;28;20142;-59
2022/01/11 03:58:17;;;;;;;71.10;24.02;;;;;;;4.00;73.01;103128.53;4961412;28;20047;-59
2022/01/11 04:00:44;;;;;;;72.55;23.48;;;;;;;4.02;72.85;103128.66;4954411;28;20125;-59
2022/01/11 04:03:09;;;;;;;73.63;23.67;;;;;;;3.91;72.55;103126.94;4956798;28;20054;-58
2022/01/11 04:05:35;;;;;;;76.25;24.20;;;;;;;3.90;73.20;103127.75;4956277;28;20043;-60
2022/01/11 04:08:00;;;;;;;68.35;23.92;;;;;;;3.82;72.73;103129.72;4956460;28;20053;-59
2022/01/11 04:10:26;;;;;;;73.53;24.50;;;;;;;3.75;73.05;103126.56;4953911;28;20698;-59
2022/01/11 04:12:53;;;;;;;79.80;24.75;;;;;;;3.68;72.87;103130.34;4956792;28;20132;-58
2022/01/11 04:15:18;;;;;;;76.80;23.67;;;;;;;3.61;73.61;103136.72;4952401;28;20066;-58
2022/01/11 04:17:44;;;;;;;74.18;23.10;;;;;;;3.65;73.44;103137.88;4961215;28;20112;-59
2022/01/11 04:20:10;;;;;;;75.80;23.50;;;;;;;3.71;73.31;103134.84;4956672;28;20043;-59
2022/01/11 04:22:35;;;;;;;75.28;24.25;;;;;;;3.63;73.46;103135.16;4953902;28;20043;-59
2022/01/11 04:25:01;;;;;;;70.93;24.10;;;;;;;3.54;73.43;103139.59;4952736;28;20054;-59
2022/01/11 04:27:27;;;;;;;75.18;23.55;;;;;;;3.55;73.70;103148.22;4948500;28;20401;-58
2022/01/11 04:29:52;;;;;;;77.05;24.02;;;;;;;3.57;73.64;103150.16;4965918;28;20570;-60
2022/01/11 04:32:17;;;;;;;76.30;24.42;;;;;;;3.54;74.39;103142.16;4954678;28;20626;-59
2022/01/11 04:34:43;;;;;;;74.00;24.48;;;;;;;3.53;73.48;103144.66;4960164;28;20199;-59
2022/01/11 04:37:08;;;;;;;69.88;24.95;;;;;;;3.50;74.52;103136.66;4953148;28;20118;-59
2022/01/11 04:39:33;;;;;;;73.93;25.92;;;;;;;3.54;73.73;103141.25;4950295;28;20050;-59
2022/01/11 04:41:59;;;;;;;68.75;24.55;;;;;;;3.57;74.15;103145.00;4956012;28;21080;-59
2022/01/11 04:44:24;;;;;;;73.82;24.95;;;;;;;3.63;73.45;103144.56;4956858;28;20597;-59
2022/01/11 04:46:50;;;;;;;72.47;24.65;;;;;;;3.64;73.96;103146.38;4959795;28;20042;-59
2022/01/11 04:49:15;;;;;;;75.57;25.13;;;;;;;3.65;74.10;103143.94;4959007;28;20042;-60
2022/01/11 04:51:40;;;;;;;73.40;24.58;;;;;;;3.68;73.17;103145.81;4943754;28;20043;-59
2022/01/11 04:54:07;;;;;;;72.22;26.05;;;;;;;3.64;74.03;103146.38;4957376;28;20057;-59
2022/01/11 04:56:32;;;;;;;70.45;24.88;;;;;;;3.69;73.30;103145.03;4958796;28;20479;-59
2022/01/11 04:58:58;;;;;;;73.35;26.08;;;;;;;3.71;73.46;103150.34;4949471;28;20031;-62
2022/01/11 05:01:23;;;;;;;72.15;25.30;;;;;;;3.75;73.71;103150.69;4952032;28;20605;-62
2022/01/11 05:03:49;;;;;;;77.05;25.67;;;;;;;3.72;73.65;103147.84;4956008;28;20673;-60
2022/01/11 05:06:14;;;;;;;69.50;25.60;;;;;;;3.70;74.18;103145.94;4949357;28;20052;-60
2022/01/11 05:08:40;;;;;;;73.80;25.67;;;;;;;3.71;73.74;103150.34;4957753;28;20703;-60
2022/01/11 05:11:06;;;;;;;69.05;25.33;;;;;;;3.66;73.79;103144.78;4957654;28;20105;-59
2022/01/11 05:13:32;;;;;;;72.30;24.95;;;;;;;3.56;73.19;103140.63;4945939;28;20034;-59
2022/01/11 05:15:59;;;;;;;66.20;24.55;;;;;;;3.65;73.44;103145.59;4954922;28;20657;-60
2022/01/11 05:18:24;;;;;;;68.30;25.05;;;;;;;3.65;73.97;103145.59;4957530;28;20225;-60
2022/01/11 05:20:50;;;;;;;71.18;24.48;;;;;;;3.62;72.94;103141.09;4956673;28;20042;-60
2022/01/11 05:23:16;;;;;;;70.43;25.02;;;;;;;3.48;74.46;103141.69;4953778;28;20046;-60
2022/01/11 05:25:42;;;;;;;67.93;23.92;;;;;;;3.48;73.79;103139.13;4956173;28;20062;-59
2022/01/11 05:28:08;;;;;;;64.38;23.42;;;;;;;3.48;74.36;103143.38;4958458;28;20537;-60
2022/01/11 05:30:33;;;;;;;68.05;23.67;;;;;;;3.50;73.96;103146.97;4951562;28;20046;-59
2022/01/11 05:32:59;;;;;;;66.70;24.80;;;;;;;3.52;73.95;103146.31;4963083;28;20047;-59
2022/01/11 05:35:25;;;;;;;63.42;23.27;;;;;;;3.48;74.55;103143.38;4949322;28;20152;-60
2022/01/11 05:37:50;;;;;;;55.08;21.52;;;;;;;3.40;74.18;103145.38;4954629;28;20496;-59
2022/01/11 05:40:17;;;;;;;60.88;23.02;;;;;;;3.52;74.33;103148.00;4949069;28;20038;-59
2022/01/11 05:42:43;;;;;;;59.33;22.27;;;;;;;3.50;74.67;103147.88;4957252;28;20105;-60
2022/01/11 05:45:10;;;;;;;52.58;21.92;;;;;;;3.57;74.41;103149.25;4954806;28;20050;-59
2022/01/11 05:47:36;;;;;;;48.95;21.05;;;;;;;3.63;74.12;103153.22;4950100;28;20581;-60
2022/01/11 05:50:04;;;;;;;56.45;22.83;;;;;;;3.66;73.70;103165.44;4960855;28;20573;-59
2022/01/11 05:52:29;;;;;;;49.42;21.75;;;;;;;3.68;73.97;103159.63;4952816;28;20038;-59
2022/01/11 05:54:55;;;;;;;49.88;21.05;;;;;;;3.66;73.94;103161.16;4951902;28;20108;-59
2022/01/11 05:57:20;;;;;;;47.88;20.77;;;;;;;3.70;73.22;103164.91;4957400;28;20042;-59
2022/01/11 05:59:46;;;;;;;51.97;21.42;;;;;;;3.65;73.57;103167.13;4952102;28;20073;-59
2022/01/11 06:02:11;;;;;;;50.35;21.60;;;;;;;3.66;73.99;103161.16;4954692;28;20038;-59
2022/01/11 06:04:36;;;;;;;51.22;21.20;;;;;;;3.66;73.70;103155.09;4959081;28;20069;-59
2022/01/11 06:07:02;;;;;;;51.53;21.50;;;;;;;3.69;73.69;103160.53;4952960;28;20057;-59
2022/01/11 06:09:28;;;;;;;54.40;22.10;;;;;;;3.69;73.13;103155.38;4951736;28;20707;-60
2022/01/11 06:11:55;;;;;;;46.90;20.60;;;;;;;3.72;73.40;103159.88;4960606;28;20100;-62
2022/01/11 06:14:20;;;;;;;52.15;20.98;;;;;;;3.65;72.96;103163.66;4955835;28;20050;-59
2022/01/11 06:16:46;;;;;;;48.42;20.05;;;;;;;3.67;73.14;103170.72;4956116;28;20054;-60
2022/01/11 06:19:11;;;;;;;46.13;20.38;;;;;;;3.68;72.90;103177.69;4957116;28;20532;-59
2022/01/11 06:21:37;;;;;;;48.78;20.17;;;;;;;3.68;73.13;103184.50;4948246;28;20043;-60
2022/01/11 06:24:02;;;;;;;47.28;19.92;;;;;;;3.63;72.88;103178.09;4946971;28;20452;-61
2022/01/11 06:26:28;;;;;;;48.88;20.45;;;;;;;3.61;73.20;103179.66;4954989;28;20123;-59
2022/01/11 06:28:56;;;;;;;49.67;20.50;;;;;;;3.60;73.21;103183.91;4953338;28;20041;-59
2022/01/11 06:31:22;;;;;;;49.88;20.27;;;;;;;3.55;73.42;103181.75;4953421;28;20488;-60
2022/01/11 06:33:47;;;;;;;46.25;19.95;;;;;;;3.60;73.24;103193.31;4946815;28;20701;-60
2022/01/11 06:36:13;;;;;;;45.83;20.45;;;;;;;3.62;73.01;103199.50;4963307;28;20145;-60
2022/01/11 06:38:39;;;;;;;44.25;19.60;;;;;;;3.58;73.01;103202.66;4956810;28;20057;-59
2022/01/11 06:41:04;;;;;;;48.55;20.05;;;;;;;3.61;73.43;103219.25;4954988;28;20350;-60
2022/01/11 06:43:30;;;;;;;42.58;19.25;;;;;;;3.57;73.27;103206.91;4951186;28;20909;-59
2022/01/11 06:45:55;;;;;;;46.13;19.95;;;;;;;3.59;74.17;103207.03;4956606;28;20050;-60
2022/01/11 06:48:21;;;;;;;48.55;20.20;;;;;;;3.65;73.80;103204.94;4962778;28;20050;-59
2022/01/11 06:50:47;;;;;;;45.45;19.50;;;;;;;3.80;73.44;103207.78;4954199;28;20045;-60
2022/01/11 06:53:12;;;;;;;45.53;19.75;;;;;;;3.80;72.88;103202.63;4957743;28;20059;-60
2022/01/11 06:55:38;;;;;;;44.35;19.33;;;;;;;3.80;73.24;103213.84;4954347;28;20094;-62
2022/01/11 06:58:03;;;;;;;46.63;20.27;;;;;;;3.74;72.85;103213.38;4951910;28;20047;-59
2022/01/11 07:00:29;;;;;;;43.42;19.33;;;;;;;3.86;72.84;103208.25;4955599;28;20411;-59
2022/01/11 07:02:54;;;;;;;40.67;18.67;;;;;;;3.86;72.31;103214.31;4948509;28;20057;-60
2022/01/11 07:05:20;;;;;;;43.17;18.83;;;;;;;3.88;72.43;103212.78;4958434;28;20528;-59
2022/01/11 07:07:45;;;;;;;42.17;18.65;;;;;;;3.87;72.65;103215.22;4950020;28;20038;-59
2022/01/11 07:10:10;;;;;;;41.17;18.80;;;;;;;3.87;72.95;103215.22;4959045;28;20197;-59
2022/01/11 07:12:36;;;;;;;44.47;19.48;;;;;;;3.82;72.48;103213.97;4959929;28;20169;-59
2022/01/11 07:15:03;;;;;;;39.03;17.77;;;;;;;3.88;72.74;103217.03;4950111;28;20544;-60
2022/01/11 07:17:28;;;;;;;42.45;18.70;;;;;;;3.84;72.11;103220.16;4957991;28;20538;-59
2022/01/11 07:19:54;;;;;;;46.83;18.75;;;;;;;3.83;72.21;103223.53;4959308;28;20064;-60
2022/01/11 07:22:19;;;;;;;37.88;17.25;;;;;;;3.86;72.42;103232.38;4956129;28;20104;-59
2022/01/11 07:24:45;;;;;;;39.30;17.92;;;;;;;3.86;71.79;103241.81;4955866;28;20059;-59
2022/01/11 07:27:10;;;;;;;38.03;17.48;;;;;;;3.86;72.24;103246.97;4960893;28;20073;-59
2022/01/11 07:29:35;;;;;;;38.50;17.60;;;;;;;3.78;71.76;103256.69;4938930;28;20117;-59
2022/01/11 07:32:01;;;;;;;36.15;17.08;;;;;;;3.73;72.35;103242.53;4960609;28;20042;-60
2022/01/11 07:34:26;;;;;;;39.30;17.42;;;;;;;3.66;72.85;103245.41;4955268;28;20057;-59
2022/01/11 07:36:52;;;;;;;36.38;17.17;;;;;;;3.66;72.61;103237.66;4958343;28;20112;-60
2022/01/11 07:39:18;;;;;;;38.10;17.38;;;;;;;3.63;73.02;103238.34;4960797;28;20502;-60
2022/01/11 07:41:43;;;;;;;38.42;17.55;;;;;;;3.60;73.18;103237.16;4955285;28;22021;-59
2022/01/11 07:44:09;;;;;;;36.83;17.25;;;;;;;3.62;73.03;103233.03;4960835;28;20394;-60
2022/01/11 07:46:35;;;;;;;39.10;17.50;;;;;;;3.63;72.75;103251.22;4958315;28;20042;-59
2022/01/11 07:49:02;;;;;;;43.78;17.40;;;;;;;3.64;72.33;103254.72;4954915;28;20042;-59
2022/01/11 07:51:29;;;;;;;43.08;17.75;;;;;;;3.56;72.46;103251.53;4950846;28;20710;-60
2022/01/11 07:53:54;;;;;;;38.58;16.85;;;;;;;3.53;72.75;103258.13;4950288;28;20043;-60
2022/01/11 07:56:20;;;;;;;38.75;17.33;;;;;;;3.51;73.39;103249.34;4954673;28;20109;-60
2022/01/11 07:58:45;;;;;;;39.75;17.35;;;;;;;3.50;72.75;103258.78;4959866;28;20110;-59
2022/01/11 08:01:11;;;;;;;38.67;17.10;;;;;;;3.55;72.90;103260.03;4959725;28;20062;-59
2022/01/11 08:03:36;;;;;;;39.22;17.50;;;;;;;3.46;73.47;103261.91;4953108;28;20052;-61
2022/01/11 08:06:02;;;;;;;36.83;16.92;;;;;;;3.47;72.25;103258.53;4959198;28;20047;-61
2022/01/11 08:08:28;;;;;;;41.75;17.52;;;;;;;3.42;73.05;103251.19;4958865;28;20043;-60
2022/01/11 08:10:55;;;;;;;38.05;17.35;;;;;;;3.41;72.90;103259.72;4953380;28;20444;-60
2022/01/11 08:13:24;;;;;;;39.58;16.77;;;;;;;3.46;72.95;103263.56;4953223;28;20478;-60
2022/01/11 08:15:50;;;;;;;38.42;16.90;;;;;;;3.48;72.51;103269.72;4954278;28;20249;-60
2022/01/11 08:18:15;;;;;;;37.83;16.48;;;;;;;3.49;72.71;103275.00;4958573;28;20325;-59
2022/01/11 08:20:41;;;;;;;33.92;15.65;;;;;;;3.55;72.44;103275.50;4953141;28;20046;-59
2022/01/11 08:23:06;;;;;;;35.10;16.15;;;;;;;3.47;73.12;103267.94;4956274;28;20046;-60
2022/01/11 08:25:32;;;;;;;37.75;16.20;;;;;;;3.48;73.23;103270.63;4956396;28;20650;-60
2022/01/11 08:27:59;;;;;;;33.08;15.82;;;;;;;3.47;73.14;103271.44;4954077;28;20042;-61
2022/01/11 08:30:25;;;;;;;35.55;16.05;;;;;;;3.53;72.24;103277.09;4956471;28;20062;-59
2022/01/11 08:32:50;;;;;;;31.95;15.57;;;;;;;3.49;72.63;103281.84;4955906;28;20046;-60
2022/01/11 08:35:15;;;;;;;38.85;17.15;;;;;;;3.49;72.58;103279.28;4958065;28;20129;-60
2022/01/11 08:37:41;;;;;;;34.83;15.85;;;;;;;3.50;72.15;103275.91;4951879;28;20306;-61
2022/01/11 08:40:07;;;;;;;34.10;15.65;;;;;;;3.48;72.71;103278.38;4956845;28;20144;-60
2022/01/11 08:42:38;;;;;;;37.38;16.13;;;;;;;3.44;72.01;103272.84;4961976;28;20517;-60
2022/01/11 08:45:04;;;;;;;34.80;15.60;;;;;;;3.49;72.10;103282.75;4961589;28;20502;-60
2022/01/11 08:47:30;;;;;;;32.95;15.05;;;;;;;3.47;72.12;103280.84;4951366;28;20569;-62
2022/01/11 08:49:59;;;;;;;34.60;15.73;;;;;;;3.54;72.10;103285.69;4956614;28;20046;-60
2022/01/11 08:52:28;;;;;;;36.88;15.68;;;;;;;3.48;72.47;103280.94;4956180;28;20049;-60
2022/01/11 08:54:54;;;;;;;38.67;16.30;;;;;;;3.57;72.84;103278.22;4963012;28;20042;-61
2022/01/11 08:57:20;;;;;;;36.30;15.48;;;;;;;3.52;72.02;103276.94;4952054;28;20069;-60
2022/01/11 08:59:46;;;;;;;38.70;15.98;;;;;;;3.56;72.50;103274.72;4954263;28;20050;-59
2022/01/11 09:02:12;;;;;;;33.17;15.23;;;;;;;3.56;72.45;103277.31;4952355;28;20124;-61
2022/01/11 09:04:37;;;;;;;32.95;14.93;;;;;;;3.66;72.12;103282.41;4957812;28;20376;-60
2022/01/11 09:07:03;;;;;;;33.40;15.20;;;;;;;3.74;72.00;103290.75;4958203;28;20482;-59
2022/01/11 09:09:31;;;;;;;34.10;15.35;;;;;;;3.78;71.23;103303.13;4952814;28;20038;-60
2022/01/11 09:11:57;;;;;;;29.27;14.43;;;;;;;3.74;71.17;103295.03;4956123;28;20038;-60
2022/01/11 09:14:23;;;;;;;30.80;14.32;;;;;;;3.71;71.28;103302.53;4955798;28;20184;-60
2022/01/11 09:16:48;;;;;;;31.88;15.30;;;;;;;3.79;71.65;103307.50;4957845;28;20046;-60
2022/01/11 09:19:15;;;;;;;31.83;15.00;;;;;;;3.77;71.23;103308.19;4952266;28;20148;-61
2022/01/11 09:21:41;;;;;;;29.90;14.85;;;;;;;3.86;71.08;103301.16;4948690;28;20345;-60
2022/01/11 09:24:08;;;;;;;32.28;14.38;;;;;;;3.85;71.66;103302.84;4961436;28;20478;-59
2022/01/11 09:26:34;;;;;;;37.00;15.07;;;;;;;3.87;71.29;103295.22;4954510;28;20038;-60
2022/01/11 09:28:59;;;;;;;29.38;14.00;;;;;;;3.94;70.88;103300.09;4952196;28;20314;-60
2022/01/11 09:31:25;;;;;;;31.90;14.25;;;;;;;3.91;70.90;103300.72;4949257;28;20105;-62
2022/01/11 09:33:51;;;;;;;35.80;13.95;;;;;;;3.95;70.88;103294.16;4961411;28;20525;-60
2022/01/11 09:36:16;;;;;;;30.15;13.57;;;;;;;3.94;71.05;103292.34;4953599;28;20062;-60
2022/01/11 09:38:42;;;;;;;30.58;13.68;;;;;;;4.01;70.94;103298.13;4958372;28;20042;-60
2022/01/11 09:41:07;;;;;;;31.83;14.02;;;;;;;4.16;71.25;103305.22;4955828;28;20145;-61
2022/01/11 09:43:33;;;;;;;29.92;14.00;;;;;;;4.36;70.28;103297.34;4946972;28;20112;-60
2022/01/11 09:45:58;;;;;;;31.98;14.30;;;;;;;4.52;70.08;103307.16;4959524;28;20057;-61
2022/01/11 09:48:26;;;;;;;31.98;14.13;;;;;;;4.63;69.63;103306.31;4959707;28;20038;-60
2022/01/11 09:50:52;;;;;;;29.98;14.10;;;;;;;4.62;69.00;103292.50;4955198;28;20105;-60
2022/01/11 09:53:22;;;;;;;30.02;14.20;;;;;;;4.66;68.76;103297.09;4961250;28;20045;-59
2022/01/11 09:55:47;;;;;;;30.40;14.05;;;;;;;4.68;68.92;103285.22;4947275;28;20054;-60
2022/01/11 09:58:13;;;;;;;30.95;13.77;;;;;;;4.78;68.80;103295.44;4959039;28;20061;-60
2022/01/11 10:00:40;;;;;;;31.52;14.18;;;;;;;4.94;68.28;103291.44;4949512;28;20049;-60
2022/01/11 10:03:06;;;;;;;37.78;14.45;;;;;;;5.03;67.80;103287.84;4956310;28;20140;-60
2022/01/11 10:05:33;;;;;;;31.25;14.80;;;;;;;5.11;67.67;103294.47;4949316;28;20283;-60
2022/01/11 10:07:58;;;;;;;29.90;14.25;;;;;;;5.09;67.51;103293.47;4959247;28;20050;-60
2022/01/11 10:10:26;;;;;;;28.17;13.38;;;;;;;5.22;67.38;103288.41;4941388;28;20240;-61
2022/01/11 10:12:54;;;;;;;29.05;13.98;;;;;;;5.31;67.04;103289.06;4959550;28;20046;-61
2022/01/11 10:15:39;;;;;;;30.00;14.15;;;;;;;5.28;66.68;103299.22;4953342;28;20046;-59
2022/01/11 10:18:06;;;;;;;29.40;14.07;;;;;;;5.41;66.34;103316.53;4940648;28;20042;-60
2022/01/11 10:20:35;;;;;;;25.85;13.30;;;;;;;5.52;65.84;103314.72;4952977;28;20038;-59
2022/01/11 10:23:03;;;;;;;28.20;13.50;;;;;;;5.56;66.18;103315.03;4958539;28;20043;-60
2022/01/11 10:25:30;;;;;;;29.98;13.90;;;;;;;5.58;65.58;103320.31;4944486;28;20038;-60
2022/01/11 10:27:59;;;;;;;28.02;13.30;;;;;;;5.63;65.50;103319.88;4957387;28;20616;-60
2022/01/11 10:30:26;;;;;;;30.23;13.88;;;;;;;5.65;65.48;103320.88;4955115;28;20042;-60
2022/01/11 10:32:53;;;;;;;31.63;14.38;;;;;;;5.71;65.44;103329.09;4954190;28;20095;-63
2022/01/11 10:35:28;;;;;;;28.25;13.45;;;;;;;5.77;64.96;103330.31;4956882;28;20498;-59
2022/01/11 10:37:56;;;;;;;32.40;13.88;;;;;;;5.65;65.36;103339.00;4959918;28;20058;-59
2022/01/11 10:40:24;;;;;;;29.05;14.15;;;;;;;5.71;64.62;103336.84;4949271;28;20037;-59
2022/01/11 10:42:52;;;;;;;28.45;13.80;;;;;;;5.76;65.21;103332.00;4954164;28;20050;-60
2022/01/11 10:45:22;;;;;;;27.75;13.35;;;;;;;5.77;64.89;103331.22;4953397;28;20421;-59
2022/01/11 10:47:54;;;;;;;27.05;13.85;;;;;;;5.64;65.42;103331.13;4953016;28;20387;-60
2022/01/11 10:50:27;;;;;;;31.38;13.20;;;;;;;5.77;65.01;103327.72;4962134;28;20050;-60
2022/01/11 10:52:53;;;;;;;30.42;14.55;;;;;;;5.76;64.96;103326.81;4964236;28;20468;-59
2022/01/11 10:55:21;;;;;;;28.40;13.82;;;;;;;5.84;65.07;103312.75;4960912;28;20043;-59
2022/01/11 10:57:55;;;;;;;26.23;13.68;;;;;;;5.90;64.85;103323.56;4958371;28;20050;-59
2022/01/11 11:00:25;;;;;;;30.05;14.15;;;;;;;5.91;64.75;103325.38;4959327;28;20050;-60
2022/01/11 11:02:57;;;;;;;27.65;13.70;;;;;;;5.97;64.63;103323.22;4956948;28;20054;-60
2022/01/11 11:05:37;;;;;;;33.55;14.65;;;;;;;5.99;64.21;103319.03;4953095;28;20240;-60
2022/01/11 11:08:30;;;;;;;32.17;14.23;;;;;;;6.12;64.18;103325.97;4956634;28;20043;-60
2022/01/11 11:10:56;;;;;;;29.70;13.40;;;;;;;6.22;64.20;103325.81;4964793;28;20033;-59
2022/01/11 11:13:33;;;;;;;26.98;13.10;;;;;;;6.22;64.39;103325.81;4955496;28;20426;-59
2022/01/11 11:16:30;;;;;;;29.42;13.40;;;;;;;6.42;63.62;103329.81;4962562;28;20472;-59
2022/01/11 11:19:00;;;;;;;28.65;14.35;;;;;;;6.43;62.73;103334.19;4952409;28;20043;-60
2022/01/11 11:21:26;;;;;;;26.95;13.13;;;;;;;6.46;62.93;103335.28;4951987;28;20121;-60